sensor_id;sensor_type;location;lat;lon;timestamp;P1;durP1;ratioP1;P2;durP2;ratioP2
72408;SDS011;60402;48.082;11.628;2022-07-06T00:02:13;2.55;;;1.50;;
72408;SDS011;60402;48.082;11.628;2022-07-06T00:04:39;3.53;;;1.70;;
72408;SDS011;60402;48.082;11.628;2022-07-06T00:07:04;4.18;;;1.70;;
72408;SDS011;60402;48.082;11.628;2022-07-06T00:09:29;2.58;;;1.40;;
72408;SDS011;60402;48.082;11.628;2022-07-06T00:11:55;2.78;;;1.70;;
72408;SDS011;60402;48.082;11.628;2022-07-06T00:14:20;3.80;;;1.80;;
72408;SDS011;60402;48.082;11.628;2022-07-06T00:16:46;3.50;;;1.63;;
72408;SDS011;60402;48.082;11.628;2022-07-06T00:19:11;2.90;;;1.60;;
72408;SDS011;60402;48.082;11.628;2022-07-06T00:21:37;6.65;;;1.92;;
72408;SDS011;60402;48.082;11.628;2022-07-06T00:24:03;3.90;;;1.92;;
72408;SDS011;60402;48.082;11.628;2022-07-06T00:26:29;3.08;;;1.75;;
72408;SDS011;60402;48.082;11.628;2022-07-06T00:28:54;3.97;;;1.63;;
72408;SDS011;60402;48.082;11.628;2022-07-06T00:31:19;3.58;;;1.70;;
72408;SDS011;60402;48.082;11.628;2022-07-06T00:33:45;2.75;;;1.83;;
72408;SDS011;60402;48.082;11.628;2022-07-06T00:36:10;3.35;;;1.85;;
72408;SDS011;60402;48.082;11.628;2022-07-06T00:38:35;2.60;;;1.73;;
72408;SDS011;60402;48.082;11.628;2022-07-06T00:41:01;3.55;;;1.70;;
72408;SDS011;60402;48.082;11.628;2022-07-06T00:43:26;3.38;;;1.90;;
72408;SDS011;60402;48.082;11.628;2022-07-06T00:45:51;3.03;;;1.92;;
72408;SDS011;60402;48.082;11.628;2022-07-06T00:48:17;2.65;;;1.77;;
72408;SDS011;60402;48.082;11.628;2022-07-06T00:50:42;4.05;;;1.90;;
72408;SDS011;60402;48.082;11.628;2022-07-06T00:53:08;4.10;;;1.75;;
72408;SDS011;60402;48.082;11.628;2022-07-06T00:55:35;3.75;;;2.05;;
72408;SDS011;60402;48.082;11.628;2022-07-06T00:58:04;4.43;;;2.00;;
72408;SDS011;60402;48.082;11.628;2022-07-06T01:00:30;3.38;;;1.90;;
72408;SDS011;60402;48.082;11.628;2022-07-06T01:02:56;3.60;;;2.03;;
72408;SDS011;60402;48.082;11.628;2022-07-06T01:05:22;5.03;;;2.10;;
72408;SDS011;60402;48.082;11.628;2022-07-06T01:07:48;2.60;;;1.70;;
72408;SDS011;60402;48.082;11.628;2022-07-06T01:10:16;3.67;;;2.00;;
72408;SDS011;60402;48.082;11.628;2022-07-06T01:12:42;3.67;;;1.80;;
72408;SDS011;60402;48.082;11.628;2022-07-06T01:15:13;3.80;;;1.95;;
72408;SDS011;60402;48.082;11.628;2022-07-06T01:17:41;3.58;;;1.92;;
72408;SDS011;60402;48.082;11.628;2022-07-06T01:20:14;3.88;;;2.00;;
72408;SDS011;60402;48.082;11.628;2022-07-06T01:22:40;3.33;;;1.95;;
72408;SDS011;60402;48.082;11.628;2022-07-06T01:25:06;3.30;;;1.90;;
72408;SDS011;60402;48.082;11.628;2022-07-06T01:27:33;3.92;;;2.00;;
72408;SDS011;60402;48.082;11.628;2022-07-06T01:30:03;4.20;;;1.80;;
72408;SDS011;60402;48.082;11.628;2022-07-06T01:32:29;4.03;;;1.88;;
72408;SDS011;60402;48.082;11.628;2022-07-06T01:34:54;3.20;;;1.77;;
72408;SDS011;60402;48.082;11.628;2022-07-06T01:37:20;5.05;;;2.15;;
72408;SDS011;60402;48.082;11.628;2022-07-06T01:39:45;5.33;;;1.90;;
72408;SDS011;60402;48.082;11.628;2022-07-06T01:42:10;3.10;;;1.90;;
72408;SDS011;60402;48.082;11.628;2022-07-06T01:44:35;4.50;;;1.92;;
72408;SDS011;60402;48.082;11.628;2022-07-06T01:47:01;3.55;;;1.70;;
72408;SDS011;60402;48.082;11.628;2022-07-06T01:49:26;3.60;;;1.90;;
72408;SDS011;60402;48.082;11.628;2022-07-06T01:51:51;3.80;;;1.90;;
72408;SDS011;60402;48.082;11.628;2022-07-06T01:54:17;3.38;;;1.90;;
72408;SDS011;60402;48.082;11.628;2022-07-06T01:56:42;3.35;;;1.75;;
72408;SDS011;60402;48.082;11.628;2022-07-06T01:59:07;5.50;;;1.92;;
72408;SDS011;60402;48.082;11.628;2022-07-06T02:01:33;6.25;;;2.05;;
72408;SDS011;60402;48.082;11.628;2022-07-06T02:03:58;4.70;;;2.00;;
72408;SDS011;60402;48.082;11.628;2022-07-06T02:06:23;3.15;;;1.85;;
72408;SDS011;60402;48.082;11.628;2022-07-06T02:08:49;2.58;;;1.70;;
72408;SDS011;60402;48.082;11.628;2022-07-06T02:11:16;3.17;;;1.75;;
72408;SDS011;60402;48.082;11.628;2022-07-06T02:13:41;3.78;;;1.83;;
72408;SDS011;60402;48.082;11.628;2022-07-06T02:16:07;3.80;;;1.75;;
72408;SDS011;60402;48.082;11.628;2022-07-06T02:18:33;3.60;;;1.88;;
72408;SDS011;60402;48.082;11.628;2022-07-06T02:20:59;4.38;;;2.05;;
72408;SDS011;60402;48.082;11.628;2022-07-06T02:23:24;5.32;;;1.88;;
72408;SDS011;60402;48.082;11.628;2022-07-06T02:25:51;4.72;;;1.83;;
72408;SDS011;60402;48.082;11.628;2022-07-06T02:28:16;4.32;;;1.80;;
72408;SDS011;60402;48.082;11.628;2022-07-06T02:30:42;3.03;;;1.65;;
72408;SDS011;60402;48.082;11.628;2022-07-06T02:33:07;2.95;;;1.73;;
72408;SDS011;60402;48.082;11.628;2022-07-06T02:35:32;3.08;;;1.65;;
72408;SDS011;60402;48.082;11.628;2022-07-06T02:37:58;5.32;;;1.80;;
72408;SDS011;60402;48.082;11.628;2022-07-06T02:40:23;3.30;;;1.80;;
72408;SDS011;60402;48.082;11.628;2022-07-06T02:42:48;3.08;;;1.58;;
72408;SDS011;60402;48.082;11.628;2022-07-06T02:45:14;2.92;;;1.60;;
72408;SDS011;60402;48.082;11.628;2022-07-06T02:47:39;3.88;;;1.70;;
72408;SDS011;60402;48.082;11.628;2022-07-06T02:50:05;4.47;;;1.77;;
72408;SDS011;60402;48.082;11.628;2022-07-06T02:52:30;4.68;;;1.75;;
72408;SDS011;60402;48.082;11.628;2022-07-06T02:54:56;3.03;;;1.70;;
72408;SDS011;60402;48.082;11.628;2022-07-06T02:57:21;3.08;;;1.70;;
72408;SDS011;60402;48.082;11.628;2022-07-06T02:59:46;5.18;;;2.40;;
72408;SDS011;60402;48.082;11.628;2022-07-06T03:02:14;3.10;;;1.90;;
72408;SDS011;60402;48.082;11.628;2022-07-06T03:04:40;3.65;;;1.90;;
72408;SDS011;60402;48.082;11.628;2022-07-06T03:07:05;3.78;;;1.80;;
72408;SDS011;60402;48.082;11.628;2022-07-06T03:09:31;4.25;;;1.85;;
72408;SDS011;60402;48.082;11.628;2022-07-06T03:11:56;2.63;;;1.83;;
72408;SDS011;60402;48.082;11.628;2022-07-06T03:14:21;3.53;;;1.90;;
72408;SDS011;60402;48.082;11.628;2022-07-06T03:16:47;3.20;;;1.85;;
72408;SDS011;60402;48.082;11.628;2022-07-06T03:19:12;4.55;;;1.90;;
72408;SDS011;60402;48.082;11.628;2022-07-06T03:21:37;3.13;;;2.03;;
72408;SDS011;60402;48.082;11.628;2022-07-06T03:24:03;3.38;;;1.60;;
72408;SDS011;60402;48.082;11.628;2022-07-06T03:26:28;2.63;;;1.67;;
72408;SDS011;60402;48.082;11.628;2022-07-06T03:28:54;4.28;;;1.58;;
72408;SDS011;60402;48.082;11.628;2022-07-06T03:31:19;4.10;;;2.10;;
72408;SDS011;60402;48.082;11.628;2022-07-06T03:33:44;3.10;;;1.65;;
72408;SDS011;60402;48.082;11.628;2022-07-06T03:36:10;3.72;;;1.98;;
72408;SDS011;60402;48.082;11.628;2022-07-06T03:38:36;3.45;;;1.63;;
72408;SDS011;60402;48.082;11.628;2022-07-06T03:41:02;2.35;;;1.60;;
72408;SDS011;60402;48.082;11.628;2022-07-06T03:43:27;4.13;;;1.80;;
72408;SDS011;60402;48.082;11.628;2022-07-06T03:45:53;4.63;;;2.03;;
72408;SDS011;60402;48.082;11.628;2022-07-06T03:48:18;3.25;;;2.10;;
72408;SDS011;60402;48.082;11.628;2022-07-06T03:50:43;4.53;;;2.05;;
72408;SDS011;60402;48.082;11.628;2022-07-06T03:53:09;3.88;;;1.92;;
72408;SDS011;60402;48.082;11.628;2022-07-06T03:55:34;5.03;;;1.90;;
72408;SDS011;60402;48.082;11.628;2022-07-06T03:58:00;3.15;;;1.63;;
72408;SDS011;60402;48.082;11.628;2022-07-06T04:00:25;4.43;;;2.03;;
72408;SDS011;60402;48.082;11.628;2022-07-06T04:02:51;4.03;;;1.83;;
72408;SDS011;60402;48.082;11.628;2022-07-06T04:05:16;4.80;;;2.15;;
72408;SDS011;60402;48.082;11.628;2022-07-06T04:07:46;3.78;;;1.75;;
72408;SDS011;60402;48.082;11.628;2022-07-06T04:10:14;3.60;;;2.05;;
72408;SDS011;60402;48.082;11.628;2022-07-06T04:12:40;4.88;;;1.90;;
72408;SDS011;60402;48.082;11.628;2022-07-06T04:15:06;3.42;;;1.73;;
72408;SDS011;60402;48.082;11.628;2022-07-06T04:17:32;3.90;;;1.90;;
72408;SDS011;60402;48.082;11.628;2022-07-06T04:20:16;4.07;;;2.00;;
72408;SDS011;60402;48.082;11.628;2022-07-06T04:22:42;3.80;;;1.88;;
72408;SDS011;60402;48.082;11.628;2022-07-06T04:25:08;3.42;;;1.80;;
72408;SDS011;60402;48.082;11.628;2022-07-06T04:27:33;3.42;;;1.83;;
72408;SDS011;60402;48.082;11.628;2022-07-06T04:29:59;3.95;;;1.73;;
72408;SDS011;60402;48.082;11.628;2022-07-06T04:32:24;2.72;;;1.70;;
72408;SDS011;60402;48.082;11.628;2022-07-06T04:34:49;4.57;;;1.95;;
72408;SDS011;60402;48.082;11.628;2022-07-06T04:37:15;3.67;;;2.05;;
72408;SDS011;60402;48.082;11.628;2022-07-06T04:39:40;5.03;;;1.75;;
72408;SDS011;60402;48.082;11.628;2022-07-06T04:42:05;2.95;;;1.75;;
72408;SDS011;60402;48.082;11.628;2022-07-06T04:44:31;4.40;;;1.83;;
72408;SDS011;60402;48.082;11.628;2022-07-06T04:46:56;3.20;;;1.73;;
72408;SDS011;60402;48.082;11.628;2022-07-06T04:49:21;2.78;;;1.50;;
72408;SDS011;60402;48.082;11.628;2022-07-06T04:51:47;5.95;;;2.00;;
72408;SDS011;60402;48.082;11.628;2022-07-06T04:54:12;3.83;;;1.80;;
72408;SDS011;60402;48.082;11.628;2022-07-06T04:56:37;4.45;;;1.60;;
72408;SDS011;60402;48.082;11.628;2022-07-06T04:59:02;3.55;;;1.85;;
72408;SDS011;60402;48.082;11.628;2022-07-06T05:01:28;5.55;;;1.80;;
72408;SDS011;60402;48.082;11.628;2022-07-06T05:03:53;3.90;;;1.60;;
72408;SDS011;60402;48.082;11.628;2022-07-06T05:06:18;4.07;;;1.88;;
72408;SDS011;60402;48.082;11.628;2022-07-06T05:08:45;3.25;;;1.90;;
72408;SDS011;60402;48.082;11.628;2022-07-06T05:11:10;3.47;;;1.70;;
72408;SDS011;60402;48.082;11.628;2022-07-06T05:13:35;3.03;;;1.67;;
72408;SDS011;60402;48.082;11.628;2022-07-06T05:16:01;3.13;;;1.50;;
72408;SDS011;60402;48.082;11.628;2022-07-06T05:18:26;3.78;;;1.65;;
72408;SDS011;60402;48.082;11.628;2022-07-06T05:20:51;2.78;;;1.50;;
72408;SDS011;60402;48.082;11.628;2022-07-06T05:23:17;2.60;;;1.75;;
72408;SDS011;60402;48.082;11.628;2022-07-06T05:25:42;2.30;;;1.40;;
72408;SDS011;60402;48.082;11.628;2022-07-06T05:28:07;3.20;;;1.60;;
72408;SDS011;60402;48.082;11.628;2022-07-06T05:30:33;4.95;;;1.70;;
72408;SDS011;60402;48.082;11.628;2022-07-06T05:32:58;3.67;;;1.40;;
72408;SDS011;60402;48.082;11.628;2022-07-06T05:35:23;2.83;;;1.45;;
72408;SDS011;60402;48.082;11.628;2022-07-06T05:37:49;4.57;;;1.73;;
72408;SDS011;60402;48.082;11.628;2022-07-06T05:40:14;3.30;;;1.73;;
72408;SDS011;60402;48.082;11.628;2022-07-06T05:42:39;2.42;;;1.60;;
72408;SDS011;60402;48.082;11.628;2022-07-06T05:45:05;4.28;;;1.60;;
72408;SDS011;60402;48.082;11.628;2022-07-06T05:47:31;3.78;;;1.70;;
72408;SDS011;60402;48.082;11.628;2022-07-06T05:50:15;5.10;;;1.70;;
72408;SDS011;60402;48.082;11.628;2022-07-06T05:52:42;2.22;;;1.48;;
72408;SDS011;60402;48.082;11.628;2022-07-06T05:55:12;2.17;;;1.35;;
72408;SDS011;60402;48.082;11.628;2022-07-06T05:57:38;3.42;;;1.52;;
72408;SDS011;60402;48.082;11.628;2022-07-06T06:00:05;3.97;;;1.52;;
72408;SDS011;60402;48.082;11.628;2022-07-06T06:02:40;1.65;;;1.20;;
72408;SDS011;60402;48.082;11.628;2022-07-06T06:05:07;3.70;;;1.70;;
72408;SDS011;60402;48.082;11.628;2022-07-06T06:07:37;2.75;;;1.45;;
72408;SDS011;60402;48.082;11.628;2022-07-06T06:10:04;4.65;;;1.40;;
72408;SDS011;60402;48.082;11.628;2022-07-06T06:12:31;3.08;;;1.35;;
72408;SDS011;60402;48.082;11.628;2022-07-06T06:14:56;2.63;;;1.50;;
72408;SDS011;60402;48.082;11.628;2022-07-06T06:17:22;3.35;;;1.63;;
72408;SDS011;60402;48.082;11.628;2022-07-06T06:19:47;2.60;;;1.38;;
72408;SDS011;60402;48.082;11.628;2022-07-06T06:22:13;4.22;;;1.50;;
72408;SDS011;60402;48.082;11.628;2022-07-06T06:24:39;3.10;;;1.60;;
72408;SDS011;60402;48.082;11.628;2022-07-06T06:27:04;2.35;;;1.40;;
72408;SDS011;60402;48.082;11.628;2022-07-06T06:29:30;2.33;;;1.38;;
72408;SDS011;60402;48.082;11.628;2022-07-06T06:31:55;2.40;;;1.42;;
72408;SDS011;60402;48.082;11.628;2022-07-06T06:34:20;4.90;;;1.30;;
72408;SDS011;60402;48.082;11.628;2022-07-06T06:36:46;3.47;;;1.60;;
72408;SDS011;60402;48.082;11.628;2022-07-06T06:39:11;2.35;;;1.30;;
72408;SDS011;60402;48.082;11.628;2022-07-06T06:41:37;2.95;;;1.50;;
72408;SDS011;60402;48.082;11.628;2022-07-06T06:44:02;3.80;;;1.60;;
72408;SDS011;60402;48.082;11.628;2022-07-06T06:46:28;2.88;;;1.50;;
72408;SDS011;60402;48.082;11.628;2022-07-06T06:48:53;6.35;;;1.50;;
72408;SDS011;60402;48.082;11.628;2022-07-06T06:51:18;2.45;;;1.50;;
72408;SDS011;60402;48.082;11.628;2022-07-06T06:53:45;5.40;;;1.70;;
72408;SDS011;60402;48.082;11.628;2022-07-06T06:56:11;2.38;;;1.48;;
72408;SDS011;60402;48.082;11.628;2022-07-06T06:58:36;4.22;;;1.58;;
72408;SDS011;60402;48.082;11.628;2022-07-06T07:01:01;3.63;;;1.73;;
72408;SDS011;60402;48.082;11.628;2022-07-06T07:03:27;3.63;;;1.40;;
72408;SDS011;60402;48.082;11.628;2022-07-06T07:05:52;4.25;;;1.30;;
72408;SDS011;60402;48.082;11.628;2022-07-06T07:08:18;4.30;;;1.30;;
72408;SDS011;60402;48.082;11.628;2022-07-06T07:10:43;2.90;;;1.30;;
72408;SDS011;60402;48.082;11.628;2022-07-06T07:13:08;2.78;;;1.10;;
72408;SDS011;60402;48.082;11.628;2022-07-06T07:15:34;3.80;;;1.60;;
72408;SDS011;60402;48.082;11.628;2022-07-06T07:17:59;2.95;;;1.10;;
72408;SDS011;60402;48.082;11.628;2022-07-06T07:20:24;2.72;;;1.30;;
72408;SDS011;60402;48.082;11.628;2022-07-06T07:22:50;4.13;;;1.25;;
72408;SDS011;60402;48.082;11.628;2022-07-06T07:25:16;3.13;;;1.20;;
72408;SDS011;60402;48.082;11.628;2022-07-06T07:27:41;2.28;;;1.23;;
72408;SDS011;60402;48.082;11.628;2022-07-06T07:30:06;5.35;;;1.38;;
72408;SDS011;60402;48.082;11.628;2022-07-06T07:32:32;2.50;;;1.30;;
72408;SDS011;60402;48.082;11.628;2022-07-06T07:34:57;2.63;;;1.23;;
72408;SDS011;60402;48.082;11.628;2022-07-06T07:37:23;5.68;;;1.30;;
72408;SDS011;60402;48.082;11.628;2022-07-06T07:39:48;2.47;;;1.20;;
72408;SDS011;60402;48.082;11.628;2022-07-06T07:42:14;3.10;;;1.27;;
72408;SDS011;60402;48.082;11.628;2022-07-06T07:44:39;3.35;;;1.40;;
72408;SDS011;60402;48.082;11.628;2022-07-06T07:47:05;2.53;;;1.30;;
72408;SDS011;60402;48.082;11.628;2022-07-06T07:49:31;3.42;;;1.35;;
72408;SDS011;60402;48.082;11.628;2022-07-06T07:51:57;2.35;;;1.17;;
72408;SDS011;60402;48.082;11.628;2022-07-06T07:54:22;2.97;;;1.40;;
72408;SDS011;60402;48.082;11.628;2022-07-06T07:56:48;4.00;;;1.42;;
72408;SDS011;60402;48.082;11.628;2022-07-06T07:59:13;3.90;;;1.20;;
72408;SDS011;60402;48.082;11.628;2022-07-06T08:01:39;2.78;;;1.23;;
72408;SDS011;60402;48.082;11.628;2022-07-06T08:04:04;3.00;;;1.50;;
72408;SDS011;60402;48.082;11.628;2022-07-06T08:06:30;3.67;;;1.30;;
72408;SDS011;60402;48.082;11.628;2022-07-06T08:08:56;4.07;;;1.50;;
72408;SDS011;60402;48.082;11.628;2022-07-06T08:11:21;3.05;;;1.40;;
72408;SDS011;60402;48.082;11.628;2022-07-06T08:13:46;5.28;;;1.48;;
72408;SDS011;60402;48.082;11.628;2022-07-06T08:16:12;4.65;;;1.30;;
72408;SDS011;60402;48.082;11.628;2022-07-06T08:18:38;4.28;;;1.50;;
72408;SDS011;60402;48.082;11.628;2022-07-06T08:21:03;3.25;;;1.38;;
72408;SDS011;60402;48.082;11.628;2022-07-06T08:23:29;4.38;;;1.40;;
72408;SDS011;60402;48.082;11.628;2022-07-06T08:25:54;3.92;;;1.50;;
72408;SDS011;60402;48.082;11.628;2022-07-06T08:28:20;4.82;;;1.30;;
72408;SDS011;60402;48.082;11.628;2022-07-06T08:30:45;4.57;;;1.55;;
72408;SDS011;60402;48.082;11.628;2022-07-06T08:33:10;5.22;;;1.77;;
72408;SDS011;60402;48.082;11.628;2022-07-06T08:35:36;5.65;;;1.90;;
72408;SDS011;60402;48.082;11.628;2022-07-06T08:38:01;3.67;;;1.60;;
72408;SDS011;60402;48.082;11.628;2022-07-06T08:40:29;4.70;;;1.55;;
72408;SDS011;60402;48.082;11.628;2022-07-06T08:42:59;4.05;;;1.67;;
72408;SDS011;60402;48.082;11.628;2022-07-06T08:45:25;5.05;;;1.98;;
72408;SDS011;60402;48.082;11.628;2022-07-06T08:47:50;3.80;;;1.50;;
72408;SDS011;60402;48.082;11.628;2022-07-06T08:50:18;3.60;;;1.65;;
72408;SDS011;60402;48.082;11.628;2022-07-06T08:52:45;5.22;;;1.65;;
72408;SDS011;60402;48.082;11.628;2022-07-06T08:55:12;3.92;;;1.63;;
72408;SDS011;60402;48.082;11.628;2022-07-06T08:57:38;2.97;;;1.70;;
72408;SDS011;60402;48.082;11.628;2022-07-06T09:00:07;3.22;;;1.58;;
72408;SDS011;60402;48.082;11.628;2022-07-06T09:02:34;3.20;;;1.80;;
72408;SDS011;60402;48.082;11.628;2022-07-06T09:05:01;3.10;;;1.52;;
72408;SDS011;60402;48.082;11.628;2022-07-06T09:07:28;3.38;;;1.73;;
72408;SDS011;60402;48.082;11.628;2022-07-06T09:09:54;4.28;;;1.90;;
72408;SDS011;60402;48.082;11.628;2022-07-06T09:12:21;4.70;;;1.80;;
72408;SDS011;60402;48.082;11.628;2022-07-06T09:14:47;4.53;;;1.70;;
72408;SDS011;60402;48.082;11.628;2022-07-06T09:17:12;4.15;;;1.70;;
72408;SDS011;60402;48.082;11.628;2022-07-06T09:19:38;2.60;;;1.67;;
72408;SDS011;60402;48.082;11.628;2022-07-06T09:22:04;4.32;;;1.85;;
72408;SDS011;60402;48.082;11.628;2022-07-06T09:24:30;3.90;;;1.90;;
72408;SDS011;60402;48.082;11.628;2022-07-06T09:26:59;3.50;;;1.88;;
72408;SDS011;60402;48.082;11.628;2022-07-06T09:29:29;4.25;;;1.90;;
72408;SDS011;60402;48.082;11.628;2022-07-06T09:31:55;4.45;;;2.28;;
72408;SDS011;60402;48.082;11.628;2022-07-06T09:34:22;4.05;;;2.10;;
72408;SDS011;60402;48.082;11.628;2022-07-06T09:36:48;6.28;;;2.22;;
72408;SDS011;60402;48.082;11.628;2022-07-06T09:41:45;3.35;;;1.80;;
72408;SDS011;60402;48.082;11.628;2022-07-06T09:44:11;4.18;;;1.80;;
72408;SDS011;60402;48.082;11.628;2022-07-06T09:46:40;7.20;;;2.30;;
72408;SDS011;60402;48.082;11.628;2022-07-06T09:49:06;3.33;;;1.83;;
72408;SDS011;60402;48.082;11.628;2022-07-06T09:51:34;2.97;;;1.77;;
72408;SDS011;60402;48.082;11.628;2022-07-06T09:54:00;4.18;;;2.00;;
72408;SDS011;60402;48.082;11.628;2022-07-06T09:56:39;4.93;;;1.95;;
72408;SDS011;60402;48.082;11.628;2022-07-06T10:01:39;4.15;;;2.13;;
72408;SDS011;60402;48.082;11.628;2022-07-06T10:04:08;3.38;;;1.98;;
72408;SDS011;60402;48.082;11.628;2022-07-06T10:06:37;3.50;;;1.90;;
72408;SDS011;60402;48.082;11.628;2022-07-06T10:09:07;4.47;;;1.98;;
72408;SDS011;60402;48.082;11.628;2022-07-06T10:11:37;3.80;;;2.00;;
72408;SDS011;60402;48.082;11.628;2022-07-06T10:14:04;4.40;;;2.00;;
72408;SDS011;60402;48.082;11.628;2022-07-06T10:16:31;4.85;;;1.88;;
72408;SDS011;60402;48.082;11.628;2022-07-06T10:18:58;3.90;;;1.98;;
72408;SDS011;60402;48.082;11.628;2022-07-06T10:21:26;3.45;;;1.83;;
72408;SDS011;60402;48.082;11.628;2022-07-06T10:23:51;3.92;;;1.90;;
72408;SDS011;60402;48.082;11.628;2022-07-06T10:26:18;3.17;;;1.77;;
72408;SDS011;60402;48.082;11.628;2022-07-06T10:28:46;3.65;;;1.70;;
72408;SDS011;60402;48.082;11.628;2022-07-06T10:31:13;3.47;;;1.90;;
72408;SDS011;60402;48.082;11.628;2022-07-06T10:33:43;5.55;;;1.73;;
72408;SDS011;60402;48.082;11.628;2022-07-06T10:36:09;3.97;;;1.88;;
72408;SDS011;60402;48.082;11.628;2022-07-06T10:38:36;4.32;;;1.88;;
72408;SDS011;60402;48.082;11.628;2022-07-06T10:41:05;4.53;;;1.80;;
72408;SDS011;60402;48.082;11.628;2022-07-06T10:43:35;5.25;;;1.80;;
72408;SDS011;60402;48.082;11.628;2022-07-06T10:46:10;3.90;;;2.15;;
72408;SDS011;60402;48.082;11.628;2022-07-06T10:48:40;3.45;;;1.83;;
72408;SDS011;60402;48.082;11.628;2022-07-06T10:51:07;3.47;;;1.70;;
72408;SDS011;60402;48.082;11.628;2022-07-06T10:53:34;3.08;;;1.67;;
72408;SDS011;60402;48.082;11.628;2022-07-06T10:56:05;3.35;;;2.00;;
72408;SDS011;60402;48.082;11.628;2022-07-06T11:01:00;3.20;;;1.88;;
72408;SDS011;60402;48.082;11.628;2022-07-06T11:03:36;4.15;;;1.70;;
72408;SDS011;60402;48.082;11.628;2022-07-06T11:11:14;4.28;;;2.28;;
72408;SDS011;60402;48.082;11.628;2022-07-06T11:16:20;3.63;;;1.73;;
72408;SDS011;60402;48.082;11.628;2022-07-06T11:18:48;4.88;;;1.80;;
72408;SDS011;60402;48.082;11.628;2022-07-06T11:24:20;3.63;;;1.88;;
72408;SDS011;60402;48.082;11.628;2022-07-06T11:26:47;3.90;;;1.92;;
72408;SDS011;60402;48.082;11.628;2022-07-06T11:29:15;5.07;;;2.00;;
72408;SDS011;60402;48.082;11.628;2022-07-06T11:31:44;6.28;;;2.25;;
72408;SDS011;60402;48.082;11.628;2022-07-06T11:34:12;3.45;;;1.83;;
72408;SDS011;60402;48.082;11.628;2022-07-06T11:36:42;3.90;;;1.90;;
72408;SDS011;60402;48.082;11.628;2022-07-06T11:39:07;3.70;;;1.73;;
72408;SDS011;60402;48.082;11.628;2022-07-06T11:41:33;2.95;;;1.55;;
72408;SDS011;60402;48.082;11.628;2022-07-06T11:43:59;4.57;;;1.58;;
72408;SDS011;60402;48.082;11.628;2022-07-06T11:46:29;4.68;;;1.60;;
72408;SDS011;60402;48.082;11.628;2022-07-06T11:49:00;4.55;;;1.88;;
72408;SDS011;60402;48.082;11.628;2022-07-06T11:51:28;6.55;;;1.80;;
72408;SDS011;60402;48.082;11.628;2022-07-06T11:53:58;4.55;;;1.73;;
72408;SDS011;60402;48.082;11.628;2022-07-06T11:56:25;3.03;;;1.70;;
72408;SDS011;60402;48.082;11.628;2022-07-06T11:58:55;4.35;;;1.75;;
72408;SDS011;60402;48.082;11.628;2022-07-06T12:01:22;3.25;;;1.90;;
72408;SDS011;60402;48.082;11.628;2022-07-06T12:03:49;4.85;;;1.80;;
72408;SDS011;60402;48.082;11.628;2022-07-06T12:06:23;3.25;;;1.63;;
72408;SDS011;60402;48.082;11.628;2022-07-06T12:08:53;3.47;;;1.83;;
72408;SDS011;60402;48.082;11.628;2022-07-06T12:13:51;2.90;;;1.75;;
72408;SDS011;60402;48.082;11.628;2022-07-06T12:16:20;5.75;;;1.75;;
72408;SDS011;60402;48.082;11.628;2022-07-06T12:18:55;4.13;;;1.40;;
72408;SDS011;60402;48.082;11.628;2022-07-06T12:21:30;3.28;;;1.58;;
72408;SDS011;60402;48.082;11.628;2022-07-06T12:23:56;3.83;;;1.60;;
72408;SDS011;60402;48.082;11.628;2022-07-06T12:26:23;3.17;;;1.67;;
72408;SDS011;60402;48.082;11.628;2022-07-06T12:29:00;3.33;;;1.60;;
72408;SDS011;60402;48.082;11.628;2022-07-06T12:31:59;4.82;;;1.63;;
72408;SDS011;60402;48.082;11.628;2022-07-06T12:34:29;4.15;;;1.85;;
72408;SDS011;60402;48.082;11.628;2022-07-06T12:37:05;5.32;;;1.60;;
72408;SDS011;60402;48.082;11.628;2022-07-06T12:39:43;2.78;;;1.48;;
72408;SDS011;60402;48.082;11.628;2022-07-06T12:42:15;2.97;;;1.50;;
72408;SDS011;60402;48.082;11.628;2022-07-06T12:44:48;3.28;;;1.70;;
72408;SDS011;60402;48.082;11.628;2022-07-06T12:47:23;3.78;;;1.70;;
72408;SDS011;60402;48.082;11.628;2022-07-06T12:50:08;5.55;;;1.65;;
72408;SDS011;60402;48.082;11.628;2022-07-06T12:52:38;4.32;;;1.60;;
72408;SDS011;60402;48.082;11.628;2022-07-06T12:55:12;3.42;;;1.60;;
72408;SDS011;60402;48.082;11.628;2022-07-06T12:57:47;3.47;;;1.90;;
72408;SDS011;60402;48.082;11.628;2022-07-06T13:00:13;2.10;;;1.45;;
72408;SDS011;60402;48.082;11.628;2022-07-06T13:02:39;4.60;;;1.60;;
72408;SDS011;60402;48.082;11.628;2022-07-06T13:05:09;3.97;;;1.60;;
72408;SDS011;60402;48.082;11.628;2022-07-06T13:07:37;4.43;;;1.85;;
72408;SDS011;60402;48.082;11.628;2022-07-06T13:10:04;6.10;;;1.70;;
72408;SDS011;60402;48.082;11.628;2022-07-06T13:14:57;4.22;;;2.10;;
72408;SDS011;60402;48.082;11.628;2022-07-06T13:17:23;3.70;;;1.70;;
72408;SDS011;60402;48.082;11.628;2022-07-06T13:19:48;3.83;;;1.60;;
72408;SDS011;60402;48.082;11.628;2022-07-06T13:22:13;4.07;;;1.75;;
72408;SDS011;60402;48.082;11.628;2022-07-06T13:24:39;2.90;;;1.73;;
72408;SDS011;60402;48.082;11.628;2022-07-06T13:27:05;3.85;;;2.10;;
72408;SDS011;60402;48.082;11.628;2022-07-06T13:29:38;3.83;;;1.63;;
72408;SDS011;60402;48.082;11.628;2022-07-06T13:32:04;4.25;;;1.67;;
72408;SDS011;60402;48.082;11.628;2022-07-06T13:34:30;5.72;;;1.90;;
72408;SDS011;60402;48.082;11.628;2022-07-06T13:36:56;3.22;;;1.80;;
72408;SDS011;60402;48.082;11.628;2022-07-06T13:39:21;4.05;;;1.60;;
72408;SDS011;60402;48.082;11.628;2022-07-06T13:41:47;5.00;;;1.67;;
72408;SDS011;60402;48.082;11.628;2022-07-06T13:44:12;3.53;;;1.60;;
72408;SDS011;60402;48.082;11.628;2022-07-06T13:46:38;4.38;;;1.70;;
72408;SDS011;60402;48.082;11.628;2022-07-06T13:49:07;3.67;;;1.58;;
72408;SDS011;60402;48.082;11.628;2022-07-06T13:51:33;3.63;;;1.75;;
72408;SDS011;60402;48.082;11.628;2022-07-06T13:53:58;3.90;;;1.70;;
72408;SDS011;60402;48.082;11.628;2022-07-06T13:56:24;4.50;;;1.77;;
72408;SDS011;60402;48.082;11.628;2022-07-06T13:58:50;2.33;;;1.33;;
72408;SDS011;60402;48.082;11.628;2022-07-06T14:01:16;3.47;;;1.60;;
72408;SDS011;60402;48.082;11.628;2022-07-06T14:03:42;3.95;;;1.70;;
72408;SDS011;60402;48.082;11.628;2022-07-06T14:06:07;3.38;;;1.50;;
72408;SDS011;60402;48.082;11.628;2022-07-06T14:08:37;2.83;;;1.63;;
72408;SDS011;60402;48.082;11.628;2022-07-06T14:11:03;4.68;;;1.77;;
72408;SDS011;60402;48.082;11.628;2022-07-06T14:13:30;3.55;;;1.60;;
72408;SDS011;60402;48.082;11.628;2022-07-06T14:15:55;3.13;;;1.55;;
72408;SDS011;60402;48.082;11.628;2022-07-06T14:18:21;4.47;;;1.80;;
72408;SDS011;60402;48.082;11.628;2022-07-06T14:20:47;3.25;;;1.73;;
72408;SDS011;60402;48.082;11.628;2022-07-06T14:23:14;3.17;;;1.80;;
72408;SDS011;60402;48.082;11.628;2022-07-06T14:25:40;5.30;;;1.80;;
72408;SDS011;60402;48.082;11.628;2022-07-06T14:28:06;5.13;;;1.70;;
72408;SDS011;60402;48.082;11.628;2022-07-06T14:30:35;5.43;;;1.75;;
72408;SDS011;60402;48.082;11.628;2022-07-06T14:33:27;5.01;;;1.59;;
72408;SDS011;60402;48.082;11.628;2022-07-06T14:36:41;4.16;;;1.66;;
72408;SDS011;60402;48.082;11.628;2022-07-06T15:27:02;3.22;;;1.48;;
72408;SDS011;60402;48.082;11.628;2022-07-06T15:29:28;3.40;;;1.73;;
72408;SDS011;60402;48.082;11.628;2022-07-06T15:31:54;3.13;;;1.70;;
72408;SDS011;60402;48.082;11.628;2022-07-06T15:34:19;2.83;;;1.50;;
72408;SDS011;60402;48.082;11.628;2022-07-06T15:36:44;3.65;;;1.75;;
72408;SDS011;60402;48.082;11.628;2022-07-06T15:39:10;2.67;;;1.60;;
72408;SDS011;60402;48.082;11.628;2022-07-06T15:41:42;3.47;;;1.40;;
72408;SDS011;60402;48.082;11.628;2022-07-06T15:44:08;3.20;;;1.58;;